Time;durP1;ratioP1;P1;durP2;ratioP2;P2;SDS_P1;SDS_P2;PMS_P1;PMS_P2;Temp;Humidity;BMP_temperature;BMP_pressure;BME280_temperature;BME280_humidity;BME280_pressure;Samples;Min_cycle;Max_cycle;Signal;HPM_P1;HPM_P2
2022/09/01 00:00:40;;;;;;;;;;;;;;;;;;4991992;28;20471;-58
2022/09/01 00:03:06;;;;;;;;;;;;;;;;;;5011494;28;19924;-58
2022/09/01 00:05:31;;;;;;;;;;;;;;;;;;5010872;28;19928;-60
2022/09/01 00:07:57;;;;;;;;;;;;;;;;;;5009727;28;19921;-60
2022/09/01 00:10:25;;;;;;;;;;;;;;;;;;5010372;28;19951;-59
2022/09/01 00:12:50;;;;;;;;;;;;;;;;;;5011789;28;21868;-58
2022/09/01 00:15:18;;;;;;;;;;;;;;;;;;5011417;28;19921;-58
2022/09/01 00:17:48;;;;;;;;;;;;;;;;;;5015483;28;20379;-59
2022/09/01 00:20:16;;;;;;;;;;;;;;;;;;5016829;28;19920;-59
2022/09/01 00:22:44;;;;;;;;;;;;;;;;;;5014604;28;19921;-58
2022/09/01 00:25:10;;;;;;;;;;;;;;;;;;5017420;28;20402;-59
2022/09/01 00:27:37;;;;;;;;;;;;;;;;;;5013994;28;19927;-59
2022/09/01 00:30:05;;;;;;;;;;;;;;;;;;4997650;28;19963;-59
2022/09/01 00:32:33;;;;;;;;;;;;;;;;;;5014104;28;19917;-59
2022/09/01 00:35:00;;;;;;;;;;;;;;;;;;4995511;28;20649;-58
2022/09/01 00:37:30;;;;;;;;;;;;;;;;;;4996597;28;19925;-59
2022/09/01 00:39:55;;;;;;;;;;;;;;;;;;4985253;28;19971;-58
2022/09/01 00:42:24;;;;;;;;;;;;;;;;;;5014055;28;19921;-58
2022/09/01 00:44:49;;;;;;;;;;;;;;;;;;4997475;28;19979;-59
2022/09/01 00:47:15;;;;;;;;;;;;;;;;;;5014970;28;19925;-58
2022/09/01 00:49:40;;;;;;;;;;;;;;;;;;4985249;28;20393;-58
2022/09/01 00:52:06;;;;;;;;;;;;;;;;;;5014973;28;20877;-59
2022/09/01 00:54:34;;;;;;;;;;;;;;;;;;5013566;28;21934;-59
2022/09/01 00:56:59;;;;;;;;;;;;;;;;;;4998099;28;19927;-59
2022/09/01 00:59:25;;;;;;;;;;;;;;;;;;4996833;28;19928;-58
2022/09/01 01:01:51;;;;;;;;;;;;;;;;;;4996810;28;19917;-59
2022/09/01 01:04:21;;;;;;;;;;;;;;;;;;4999561;28;19917;-58
2022/09/01 01:06:57;;;;;;;;;;;;;;;;;;5015615;28;19931;-58
2022/09/01 01:09:25;;;;;;;;;;;;;;;;;;4997777;28;20643;-58
2022/09/01 01:11:52;;;;;;;;;;;;;;;;;;4997187;28;20070;-59
2022/09/01 01:14:18;;;;;;;;;;;;;;;;;;5014449;28;19917;-60
2022/09/01 01:16:50;;;;;;;;;;;;;;;;;;4996950;28;20416;-59
2022/09/01 01:23:00;;;;;;;;;;;;;;;;;;4997592;28;19925;-58
2022/09/01 01:24:47;;;;;;;;;;;;;;;;;;5014207;28;19995;-58
2022/09/01 01:27:16;;;;;;;;;;;;;;;;;;4994246;28;19924;-58
2022/09/01 01:29:42;;;;;;;;;;;;;;;;;;4994968;28;20071;-58
2022/09/01 01:32:12;;;;;;;;;;;;;;;;;;5013090;28;19943;-59
2022/09/01 01:34:38;;;;;;;;;;;;;;;;;;5013732;28;19916;-59
2022/09/01 01:37:06;;;;;;;;;;;;;;;;;;5012484;28;20023;-59
2022/09/01 01:39:32;;;;;;;;;;;;;;;;;;4995852;28;20198;-59
2022/09/01 01:42:00;;;;;;;;;;;;;;;;;;4996625;28;20273;-59
2022/09/01 01:44:29;;;;;;;;;;;;;;;;;;4997829;28;19928;-59
2022/09/01 01:47:14;;;;;;;;;;;;;;;;;;4950069;28;19937;-58
2022/09/01 01:49:42;;;;;;;;;;;;;;;;;;4953004;28;20804;-58
2022/09/01 01:52:07;;;;;;;;;;;;;;;;;;4922412;28;20012;-59
2022/09/01 01:54:37;;;;;;;;;;;;;;;;;;4954095;28;19922;-58
2022/09/01 01:57:04;;;;;;;;;;;;;;;;;;4925286;28;20016;-58
2022/09/01 01:59:32;;;;;;;;;;;;;;;;;;4920797;28;19918;-58
2022/09/01 02:01:57;;;;;;;;;;;;;;;;;;4953744;28;19941;-58
2022/09/01 02:04:23;;;;;;;;;;;;;;;;;;4951953;28;19918;-57
2022/09/01 02:06:48;;;;;;;;;;;;;;;;;;4953617;28;19937;-58
2022/09/01 02:09:13;;;;;;;;;;;;;;;;;;4922726;28;19964;-58
2022/09/01 02:11:39;;;;;;;;;;;;;;;;;;4935860;28;20040;-58
2022/09/01 02:14:05;;;;;;;;;;;;;;;;;;4952749;28;19925;-58
2022/09/01 02:16:31;;;;;;;;;;;;;;;;;;4936350;28;19929;-58
2022/09/01 02:18:58;;;;;;;;;;;;;;;;;;4986816;28;20043;-58
2022/09/01 02:21:25;;;;;;;;;;;;;;;;;;4997207;28;19932;-58
2022/09/01 02:23:59;;;;;;;;;;;;;;;;;;4992222;28;19917;-59
2022/09/01 02:26:32;;;;;;;;;;;;;;;;;;5013352;28;19921;-59
2022/09/01 02:28:57;;;;;;;;;;;;;;;;;;5012614;28;19921;-59
2022/09/01 02:31:23;;;;;;;;;;;;;;;;;;4971894;28;19928;-60
2022/09/01 02:33:48;;;;;;;;;;;;;;;;;;4996234;28;19921;-58
2022/09/01 02:36:14;;;;;;;;;;;;;;;;;;5012590;28;19924;-59
2022/09/01 02:38:43;;;;;;;;;;;;;;;;;;4992144;28;19931;-62
2022/09/01 02:41:08;;;;;;;;;;;;;;;;;;5013012;28;20557;-59
2022/09/01 02:43:34;;;;;;;;;;;;;;;;;;5009539;28;19928;-59
2022/09/01 02:45:59;;;;;;;;;;;;;;;;;;4981907;28;19968;-59
2022/09/01 02:48:25;;;;;;;;;;;;;;;;;;5012780;28;20553;-59
2022/09/01 02:50:50;;;;;;;;;;;;;;;;;;4995357;28;20396;-59
2022/09/01 02:53:18;;;;;;;;;;;;;;;;;;5012446;28;20020;-59
2022/09/01 02:55:44;;;;;;;;;;;;;;;;;;5010944;28;19925;-59
2022/09/01 02:58:12;;;;;;;;;;;;;;;;;;4996309;28;20011;-58
2022/09/01 03:00:38;;;;;;;;;;;;;;;;;;4994140;28;20515;-59
2022/09/01 03:03:03;;;;;;;;;;;;;;;;;;5013252;28;19948;-59
2022/09/01 03:05:29;;;;;;;;;;;;;;;;;;5012558;28;21773;-59
2022/09/01 03:07:55;;;;;;;;;;;;;;;;;;4992553;28;20023;-59
2022/09/01 03:10:20;;;;;;;;;;;;;;;;;;4994644;28;20195;-59
2022/09/01 03:12:46;;;;;;;;;;;;;;;;;;5000413;28;20686;-59
2022/09/01 03:15:12;;;;;;;;;;;;;;;;;;4994164;28;20454;-59
2022/09/01 03:17:37;;;;;;;;;;;;;;;;;;4994309;28;20669;-58
2022/09/01 03:20:02;;;;;;;;;;;;;;;;;;4993389;28;19921;-58
2022/09/01 03:22:28;;;;;;;;;;;;;;;;;;4997671;28;20328;-58
2022/09/01 03:24:55;;;;;;;;;;;;;;;;;;5011772;28;20940;-59
2022/09/01 03:27:23;;;;;;;;;;;;;;;;;;5010137;28;19959;-60
2022/09/01 03:29:51;;;;;;;;;;;;;;;;;;4993530;28;19921;-59
2022/09/01 03:32:16;;;;;;;;;;;;;;;;;;5012259;28;19924;-59
2022/09/01 03:34:44;;;;;;;;;;;;;;;;;;4995162;28;22090;-58
2022/09/01 03:37:11;;;;;;;;;;;;;;;;;;5012268;28;19925;-59
2022/09/01 03:39:36;;;;;;;;;;;;;;;;;;4991973;28;20017;-58
2022/09/01 03:42:01;;;;;;;;;;;;;;;;;;5012011;28;20015;-58
2022/09/01 03:44:32;;;;;;;;;;;;;;;;;;4994918;28;20443;-59
2022/09/01 03:47:00;;;;;;;;;;;;;;;;;;5010620;28;19977;-59
2022/09/01 03:49:27;;;;;;;;;;;;;;;;;;4996018;28;20399;-59
2022/09/01 03:51:56;;;;;;;;;;;;;;;;;;4996599;28;19921;-59
2022/09/01 03:54:24;;;;;;;;;;;;;;;;;;5016280;28;20007;-59
2022/09/01 03:56:50;;;;;;;;;;;;;;;;;;5016355;28;19975;-59
2022/09/01 03:59:18;;;;;;;;;;;;;;;;;;4983142;28;19936;-59
2022/09/01 04:01:44;;;;;;;;;;;;;;;;;;5016337;28;19921;-59
2022/09/01 04:04:12;;;;;;;;;;;;;;;;;;5014846;28;19940;-59
2022/09/01 04:06:40;;;;;;;;;;;;;;;;;;4981150;28;19936;-60
2022/09/01 04:09:09;;;;;;;;;;;;;;;;;;4982106;28;19932;-59
2022/09/01 04:11:38;;;;;;;;;;;;;;;;;;4995777;28;19976;-59
2022/09/01 04:14:03;;;;;;;;;;;;;;;;;;5017412;28;20417;-59
2022/09/01 04:19:18;;;;;;;;;;;;;;;;;;5018139;28;19939;-59
2022/09/01 04:21:44;;;;;;;;;;;;;;;;;;5014871;28;19928;-60
2022/09/01 04:24:14;;;;;;;;;;;;;;;;;;4999134;28;19981;-58
2022/09/01 04:26:40;;;;;;;;;;;;;;;;;;5014952;28;19924;-58
2022/09/01 04:29:08;;;;;;;;;;;;;;;;;;4975593;28;19921;-59
2022/09/01 04:31:36;;;;;;;;;;;;;;;;;;4998898;28;19933;-59
2022/09/01 04:34:11;;;;;;;;;;;;;;;;;;4983991;28;19991;-60
2022/09/01 04:36:42;;;;;;;;;;;;;;;;;;5014765;28;20315;-60
2022/09/01 04:39:08;;;;;;;;;;;;;;;;;;4999769;28;20035;-60
2022/09/01 04:41:36;;;;;;;;;;;;;;;;;;5014719;28;19925;-59
2022/09/01 04:44:03;;;;;;;;;;;;;;;;;;5016552;28;19917;-59
2022/09/01 04:46:30;;;;;;;;;;;;;;;;;;5014102;28;20007;-58
2022/09/01 04:48:56;;;;;;;;;;;;;;;;;;4979460;28;19971;-59
2022/09/01 04:51:26;;;;;;;;;;;;;;;;;;5014085;28;19928;-59
2022/09/01 04:53:52;;;;;;;;;;;;;;;;;;4999233;28;19917;-59
2022/09/01 04:56:21;;;;;;;;;;;;;;;;;;4992856;28;19917;-58
2022/09/01 04:58:47;;;;;;;;;;;;;;;;;;4993385;28;19929;-58
2022/09/01 05:01:12;;;;;;;;;;;;;;;;;;5013372;28;20333;-59
2022/09/01 05:03:40;;;;;;;;;;;;;;;;;;4997854;28;19921;-59
2022/09/01 05:06:07;;;;;;;;;;;;;;;;;;5014650;28;19932;-59
2022/09/01 05:08:34;;;;;;;;;;;;;;;;;;5014391;28;20004;-58
2022/09/01 05:10:59;;;;;;;;;;;;;;;;;;4996560;28;19971;-60
2022/09/01 05:13:26;;;;;;;;;;;;;;;;;;4995374;28;20358;-59
2022/09/01 05:15:52;;;;;;;;;;;;;;;;;;4996455;28;20017;-59
2022/09/01 05:18:24;;;;;;;;;;;;;;;;;;5015512;28;19921;-60
2022/09/01 05:20:49;;;;;;;;;;;;;;;;;;5012333;28;19991;-59
2022/09/01 05:23:18;;;;;;;;;;;;;;;;;;4997336;28;20841;-58
2022/09/01 05:25:44;;;;;;;;;;;;;;;;;;5012908;28;19951;-59
2022/09/01 05:28:11;;;;;;;;;;;;;;;;;;4997252;28;20018;-60
2022/09/01 05:30:38;;;;;;;;;;;;;;;;;;4996995;28;19921;-59
2022/09/01 05:33:09;;;;;;;;;;;;;;;;;;5013928;28;19925;-59
2022/09/01 05:35:35;;;;;;;;;;;;;;;;;;5014071;28;19960;-60
2022/09/01 05:38:01;;;;;;;;;;;;;;;;;;4998035;28;19925;-60
2022/09/01 05:40:29;;;;;;;;;;;;;;;;;;5013375;28;19944;-59
2022/09/01 05:42:55;;;;;;;;;;;;;;;;;;5015407;28;20058;-59
2022/09/01 05:45:25;;;;;;;;;;;;;;;;;;5014813;28;19924;-59
2022/09/01 05:47:55;;;;;;;;;;;;;;;;;;5013549;28;19936;-61
2022/09/01 05:50:27;;;;;;;;;;;;;;;;;;4981781;28;19928;-59
2022/09/01 05:52:52;;;;;;;;;;;;;;;;;;4995238;28;19918;-60
2022/09/01 05:55:17;;;;;;;;;;;;;;;;;;4995671;28;19961;-60
2022/09/01 05:57:44;;;;;;;;;;;;;;;;;;5013239;28;19925;-58
2022/09/01 06:00:12;;;;;;;;;;;;;;;;;;4996206;28;19923;-58
2022/09/01 06:02:38;;;;;;;;;;;;;;;;;;4984332;28;19932;-58
2022/09/01 06:05:03;;;;;;;;;;;;;;;;;;4996204;28;20020;-60
2022/09/01 06:07:29;;;;;;;;;;;;;;;;;;5013774;28;19921;-59
2022/09/01 06:09:59;;;;;;;;;;;;;;;;;;4996655;28;19921;-59
2022/09/01 06:12:27;;;;;;;;;;;;;;;;;;4996151;28;19917;-59
2022/09/01 06:14:53;;;;;;;;;;;;;;;;;;4996992;28;19928;-60
2022/09/01 06:17:23;;;;;;;;;;;;;;;;;;5013396;28;19932;-58
2022/09/01 06:19:48;;;;;;;;;;;;;;;;;;4999163;28;19921;-59
2022/09/01 06:22:15;;;;;;;;;;;;;;;;;;5012593;28;21901;-59
2022/09/01 06:24:43;;;;;;;;;;;;;;;;;;5000713;28;19944;-59
2022/09/01 06:27:08;;;;;;;;;;;;;;;;;;5011824;28;19921;-59
2022/09/01 06:29:38;;;;;;;;;;;;;;;;;;4991385;28;20609;-60
2022/09/01 06:32:07;;;;;;;;;;;;;;;;;;4996044;28;19925;-60
2022/09/01 06:34:34;;;;;;;;;;;;;;;;;;5013237;28;20043;-60
2022/09/01 06:37:00;;;;;;;;;;;;;;;;;;5013098;28;19987;-59
2022/09/01 06:39:26;;;;;;;;;;;;;;;;;;5013019;28;20572;-61
2022/09/01 06:41:56;;;;;;;;;;;;;;;;;;4977323;28;20015;-59
2022/09/01 06:44:22;;;;;;;;;;;;;;;;;;5013492;28;20300;-60
2022/09/01 06:46:47;;;;;;;;;;;;;;;;;;4995456;28;19932;-58
2022/09/01 06:49:15;;;;;;;;;;;;;;;;;;4992713;28;19921;-59
2022/09/01 06:51:40;;;;;;;;;;;;;;;;;;4976233;28;19975;-58
2022/09/01 06:54:13;;;;;;;;;;;;;;;;;;5009946;28;20993;-59
2022/09/01 06:56:40;;;;;;;;;;;;;;;;;;5010250;28;19943;-58
2022/09/01 06:59:06;;;;;;;;;;;;;;;;;;5011186;28;19925;-60
2022/09/01 07:01:32;;;;;;;;;;;;;;;;;;4977753;28;20071;-60
2022/09/01 07:03:58;;;;;;;;;;;;;;;;;;4994201;28;20947;-60
2022/09/01 07:06:29;;;;;;;;;;;;;;;;;;4976284;28;20123;-60
2022/09/01 07:08:57;;;;;;;;;;;;;;;;;;5013180;28;20043;-60
2022/09/01 07:11:26;;;;;;;;;;;;;;;;;;4991200;28;20762;-60
2022/09/01 07:13:53;;;;;;;;;;;;;;;;;;4991734;28;19932;-59
2022/09/01 07:16:20;;;;;;;;;;;;;;;;;;5011926;28;19921;-60
2022/09/01 07:18:48;;;;;;;;;;;;;;;;;;5010949;28;19976;-59
2022/09/01 07:21:13;;;;;;;;;;;;;;;;;;4993293;28;19925;-60
2022/09/01 07:23:39;;;;;;;;;;;;;;;;;;5011693;28;20426;-60
2022/09/01 07:26:05;;;;;;;;;;;;;;;;;;5012253;28;19932;-60
2022/09/01 07:28:31;;;;;;;;;;;;;;;;;;5010575;28;19925;-60
2022/09/01 07:30:59;;;;;;;;;;;;;;;;;;4995140;28;19921;-61
2022/09/01 07:33:29;;;;;;;;;;;;;;;;;;5012285;28;19917;-60
2022/09/01 07:36:02;;;;;;;;;;;;;;;;;;4976587;28;20417;-59
2022/09/01 07:38:31;;;;;;;;;;;;;;;;;;5011913;28;19931;-62
2022/09/01 07:40:56;;;;;;;;;;;;;;;;;;4974545;28;19960;-61
2022/09/01 07:43:26;;;;;;;;;;;;;;;;;;5012983;28;20148;-61
2022/09/01 07:45:51;;;;;;;;;;;;;;;;;;4976586;28;19925;-60
2022/09/01 07:48:19;;;;;;;;;;;;;;;;;;5011978;28;20403;-61
2022/09/01 07:50:46;;;;;;;;;;;;;;;;;;5011673;28;19921;-60
2022/09/01 07:53:14;;;;;;;;;;;;;;;;;;4994683;28;19921;-60
2022/09/01 07:55:40;;;;;;;;;;;;;;;;;;4995495;28;19971;-61
2022/09/01 07:58:08;;;;;;;;;;;;;;;;;;4994661;28;20047;-61
2022/09/01 08:00:33;;;;;;;;;;;;;;;;;;5009860;28;19920;-62
2022/09/01 08:02:58;;;;;;;;;;;;;;;;;;5011668;28;20591;-62
2022/09/01 08:05:25;;;;;;;;;;;;;;;;;;5012575;28;20300;-61
2022/09/01 08:07:55;;;;;;;;;;;;;;;;;;5012883;28;19917;-62
2022/09/01 08:10:23;;;;;;;;;;;;;;;;;;4994207;28;20020;-62
2022/09/01 08:12:50;;;;;;;;;;;;;;;;;;5012598;28;20261;-61
2022/09/01 08:15:18;;;;;;;;;;;;;;;;;;5011695;28;20524;-62
2022/09/01 08:17:44;;;;;;;;;;;;;;;;;;4981448;28;20369;-62
2022/09/01 08:20:11;;;;;;;;;;;;;;;;;;4994613;28;19928;-62
2022/09/01 08:22:37;;;;;;;;;;;;;;;;;;5011186;28;19921;-61
2022/09/01 08:25:05;;;;;;;;;;;;;;;;;;4995557;28;19980;-61
2022/09/01 08:27:30;;;;;;;;;;;;;;;;;;5012110;28;22848;-61
2022/09/01 08:29:56;;;;;;;;;;;;;;;;;;5011241;28;19952;-61
2022/09/01 08:32:21;;;;;;;;;;;;;;;;;;4993233;28;20039;-61
2022/09/01 08:34:52;;;;;;;;;;;;;;;;;;4993335;28;20400;-60
2022/09/01 08:37:18;;;;;;;;;;;;;;;;;;4995471;28;20630;-62
2022/09/01 08:39:50;;;;;;;;;;;;;;;;;;4999275;28;19996;-62
2022/09/01 08:42:16;;;;;;;;;;;;;;;;;;5015035;28;19928;-61
2022/09/01 08:44:43;;;;;;;;;;;;;;;;;;5016724;28;19917;-61
2022/09/01 08:47:09;;;;;;;;;;;;;;;;;;4996597;28;19940;-62
2022/09/01 08:49:35;;;;;;;;;;;;;;;;;;4995252;28;19921;-60
2022/09/01 08:52:00;;;;;;;;;;;;;;;;;;5015475;28;19984;-61
2022/09/01 08:54:26;;;;;;;;;;;;;;;;;;4996392;28;19927;-62
2022/09/01 08:56:51;;;;;;;;;;;;;;;;;;4982888;28;19971;-61
2022/09/01 08:59:17;;;;;;;;;;;;;;;;;;4995855;28;20015;-60
2022/09/01 09:01:45;;;;;;;;;;;;;;;;;;5015804;28;20043;-61
2022/09/01 09:04:11;;;;;;;;;;;;;;;;;;5014078;28;19921;-61
2022/09/01 09:06:36;;;;;;;;;;;;;;;;;;5012096;28;19979;-63
2022/09/01 09:09:05;;;;;;;;;;;;;;;;;;5014443;28;19959;-62
2022/09/01 09:11:37;;;;;;;;;;;;;;;;;;4996928;28;19921;-62
2022/09/01 09:14:03;;;;;;;;;;;;;;;;;;4997390;28;19947;-62
2022/09/01 09:16:31;;;;;;;;;;;;;;;;;;5013377;28;19921;-61
2022/09/01 09:18:56;;;;;;;;;;;;;;;;;;5016378;28;20609;-61
2022/09/01 09:21:22;;;;;;;;;;;;;;;;;;4998248;28;20012;-60
2022/09/01 09:23:47;;;;;;;;;;;;;;;;;;4996998;28;19928;-62
2022/09/01 09:26:19;;;;;;;;;;;;;;;;;;4996376;28;19932;-62
2022/09/01 09:28:46;;;;;;;;;;;;;;;;;;4997344;28;19924;-61
2022/09/01 09:31:12;;;;;;;;;;;;;;;;;;4982322;28;20402;-62
2022/09/01 09:33:37;;;;;;;;;;;;;;;;;;4997935;28;19922;-61
2022/09/01 09:36:02;;;;;;;;;;;;;;;;;;4996916;28;19925;-60
2022/09/01 09:38:32;;;;;;;;;;;;;;;;;;4996857;28;19972;-61
2022/09/01 09:40:59;;;;;;;;;;;;;;;;;;4997516;28;19967;-62
2022/09/01 09:43:28;;;;;;;;;;;;;;;;;;5011659;28;19917;-62
2022/09/01 09:45:53;;;;;;;;;;;;;;;;;;4979847;28;20660;-62
2022/09/01 09:48:19;;;;;;;;;;;;;;;;;;4977295;28;19971;-63
2022/09/01 09:50:47;;;;;;;;;;;;;;;;;;5013445;28;20404;-61
2022/09/01 09:53:13;;;;;;;;;;;;;;;;;;4995970;28;20445;-61
2022/09/01 09:55:38;;;;;;;;;;;;;;;;;;5012150;28;19948;-62
2022/09/01 09:58:04;;;;;;;;;;;;;;;;;;5015103;28;20399;-62
2022/09/01 10:00:29;;;;;;;;;;;;;;;;;;4993984;28;19964;-61
2022/09/01 10:02:57;;;;;;;;;;;;;;;;;;4980229;28;20054;-62
2022/09/01 10:05:23;;;;;;;;;;;;;;;;;;4997292;28;19916;-61
2022/09/01 10:07:50;;;;;;;;;;;;;;;;;;5014232;28;20537;-60
2022/09/01 10:10:16;;;;;;;;;;;;;;;;;;5014093;28;19932;-63
2022/09/01 10:12:45;;;;;;;;;;;;;;;;;;5014074;28;19921;-63
2022/09/01 10:15:11;;;;;;;;;;;;;;;;;;4994703;28;19921;-62
2022/09/01 10:17:37;;;;;;;;;;;;;;;;;;5013271;28;19928;-63
2022/09/01 10:20:07;;;;;;;;;;;;;;;;;;5014656;28;19921;-62
2022/09/01 10:22:33;;;;;;;;;;;;;;;;;;4994178;28;20833;-62
2022/09/01 10:24:59;;;;;;;;;;;;;;;;;;5014389;28;19959;-62
2022/09/01 10:27:27;;;;;;;;;;;;;;;;;;4996570;28;19921;-63
2022/09/01 10:29:52;;;;;;;;;;;;;;;;;;4992630;28;19924;-64
2022/09/01 10:32:18;;;;;;;;;;;;;;;;;;5013566;28;19921;-63
2022/09/01 10:34:43;;;;;;;;;;;;;;;;;;5011649;28;20770;-63
2022/09/01 10:37:11;;;;;;;;;;;;;;;;;;4977819;28;19921;-61
2022/09/01 10:39:36;;;;;;;;;;;;;;;;;;5013271;28;19931;-62
2022/09/01 10:42:07;;;;;;;;;;;;;;;;;;4994232;28;19921;-62
2022/09/01 10:44:35;;;;;;;;;;;;;;;;;;4997157;28;20613;-63
2022/09/01 10:47:01;;;;;;;;;;;;;;;;;;5012067;28;20153;-63
2022/09/01 10:49:29;;;;;;;;;;;;;;;;;;5012767;28;20600;-63
2022/09/01 10:51:57;;;;;;;;;;;;;;;;;;5012795;28;20228;-62
2022/09/01 10:54:22;;;;;;;;;;;;;;;;;;5010370;28;20052;-62
2022/09/01 10:56:48;;;;;;;;;;;;;;;;;;5012553;28;20538;-61
2022/09/01 10:59:13;;;;;;;;;;;;;;;;;;5011469;28;20043;-62
2022/09/01 11:01:39;;;;;;;;;;;;;;;;;;4993572;28;20414;-61
2022/09/01 11:04:05;;;;;;;;;;;;;;;;;;4995235;28;20138;-63
2022/09/01 11:06:30;;;;;;;;;;;;;;;;;;4994292;28;19975;-61
2022/09/01 11:08:58;;;;;;;;;;;;;;;;;;4996920;28;20039;-62
2022/09/01 11:11:26;;;;;;;;;;;;;;;;;;4995823;28;19995;-62
2022/09/01 11:14:06;;;;;;;;;;;;;;;;;;4996154;28;20003;-61
2022/09/01 11:16:33;;;;;;;;;;;;;;;;;;5011627;28;19920;-62
2022/09/01 11:19:01;;;;;;;;;;;;;;;;;;4993403;28;19928;-62
2022/09/01 11:21:29;;;;;;;;;;;;;;;;;;4978223;28;19917;-62
2022/09/01 11:23:55;;;;;;;;;;;;;;;;;;4995478;28;21251;-62
2022/09/01 11:26:20;;;;;;;;;;;;;;;;;;5013174;28;19923;-62
2022/09/01 11:28:48;;;;;;;;;;;;;;;;;;4992782;28;20428;-60
2022/09/01 11:31:14;;;;;;;;;;;;;;;;;;5011242;28;19921;-58
2022/09/01 11:33:39;;;;;;;;;;;;;;;;;;4993986;28;19927;-61
2022/09/01 11:36:04;;;;;;;;;;;;;;;;;;4988837;28;20837;-60
2022/09/01 11:38:32;;;;;;;;;;;;;;;;;;4977115;28;19927;-61
2022/09/01 11:41:00;;;;;;;;;;;;;;;;;;4992299;28;19951;-62
2022/09/01 11:43:25;;;;;;;;;;;;;;;;;;4995919;28;19966;-62
2022/09/01 11:45:53;;;;;;;;;;;;;;;;;;5012558;28;19949;-62
2022/09/01 11:48:19;;;;;;;;;;;;;;;;;;4993061;28;20028;-61
2022/09/01 11:50:44;;;;;;;;;;;;;;;;;;4995124;28;20741;-62
2022/09/01 11:53:12;;;;;;;;;;;;;;;;;;4995323;28;19928;-61
2022/09/01 11:55:41;;;;;;;;;;;;;;;;;;5008027;28;20899;-60
2022/09/01 11:58:23;;;;;;;;;;;;;;;;;;4926762;28;19925;-61
2022/09/01 12:00:51;;;;;;;;;;;;;;;;;;4909541;28;19922;-60
2022/09/01 12:03:18;;;;;;;;;;;;;;;;;;4928623;28;19929;-62
2022/09/01 12:05:48;;;;;;;;;;;;;;;;;;4926001;28;19919;-61
2022/09/01 12:08:17;;;;;;;;;;;;;;;;;;4925792;28;19930;-63
2022/09/01 12:10:44;;;;;;;;;;;;;;;;;;4891600;28;19922;-62
2022/09/01 12:13:09;;;;;;;;;;;;;;;;;;4927628;28;20533;-62
2022/09/01 12:15:35;;;;;;;;;;;;;;;;;;4929983;28;19922;-62
2022/09/01 12:18:00;;;;;;;;;;;;;;;;;;4911936;28;21081;-62
2022/09/01 12:20:26;;;;;;;;;;;;;;;;;;4930752;28;19926;-60
2022/09/01 12:22:51;;;;;;;;;;;;;;;;;;4894600;28;20912;-61
2022/09/01 12:25:17;;;;;;;;;;;;;;;;;;4908991;28;20536;-61
2022/09/01 12:27:42;;;;;;;;;;;;;;;;;;4913032;28;19928;-61
2022/09/01 12:30:12;;;;;;;;;;;;;;;;;;4953839;28;20448;-63
2022/09/01 12:32:38;;;;;;;;;;;;;;;;;;5011692;28;19921;-61
2022/09/01 12:35:03;;;;;;;;;;;;;;;;;;4994049;28;20281;-62
2022/09/01 12:37:30;;;;;;;;;;;;;;;;;;4998410;28;20630;-59
2022/09/01 12:39:56;;;;;;;;;;;;;;;;;;4996839;28;19928;-62
2022/09/01 12:42:23;;;;;;;;;;;;;;;;;;4980930;28;19959;-60
2022/09/01 12:44:49;;;;;;;;;;;;;;;;;;4999001;28;19923;-61
2022/09/01 12:47:15;;;;;;;;;;;;;;;;;;5015825;28;19925;-60
2022/09/01 12:49:41;;;;;;;;;;;;;;;;;;4997332;28;19933;-61
2022/09/01 12:52:06;;;;;;;;;;;;;;;;;;4994446;28;19917;-62
2022/09/01 12:54:32;;;;;;;;;;;;;;;;;;4997426;28;20560;-62
2022/09/01 12:56:57;;;;;;;;;;;;;;;;;;5014174;28;19921;-58
2022/09/01 12:59:23;;;;;;;;;;;;;;;;;;5015980;28;19966;-62
2022/09/01 13:01:50;;;;;;;;;;;;;;;;;;5014336;28;21969;-61
2022/09/01 13:04:16;;;;;;;;;;;;;;;;;;5012586;28;19921;-61
2022/09/01 13:06:42;;;;;;;;;;;;;;;;;;5012275;28;19921;-62
2022/09/01 13:09:08;;;;;;;;;;;;;;;;;;4997783;28;19925;-62
2022/09/01 13:11:33;;;;;;;;;;;;;;;;;;4995424;28;19921;-62
2022/09/01 13:14:01;;;;;;;;;;;;;;;;;;4995559;28;19925;-61
2022/09/01 13:16:27;;;;;;;;;;;;;;;;;;4995091;28;19921;-63
2022/09/01 13:18:54;;;;;;;;;;;;;;;;;;4991355;28;19998;-60
2022/09/01 13:21:23;;;;;;;;;;;;;;;;;;5013015;28;19959;-61
2022/09/01 13:23:50;;;;;;;;;;;;;;;;;;5011470;28;19926;-62
2022/09/01 13:26:16;;;;;;;;;;;;;;;;;;4976272;28;20511;-61
2022/09/01 13:28:44;;;;;;;;;;;;;;;;;;5013184;28;19921;-61
2022/09/01 13:31:10;;;;;;;;;;;;;;;;;;4984444;28;19979;-61
2022/09/01 13:33:35;;;;;;;;;;;;;;;;;;5014346;28;19921;-62
2022/09/01 13:36:01;;;;;;;;;;;;;;;;;;5010508;28;19921;-63
2022/09/01 13:38:30;;;;;;;;;;;;;;;;;;5011991;28;19944;-59
2022/09/01 13:40:58;;;;;;;;;;;;;;;;;;5011654;28;20791;-61
2022/09/01 13:43:27;;;;;;;;;;;;;;;;;;4995571;28;19917;-61
2022/09/01 13:45:52;;;;;;;;;;;;;;;;;;4978757;28;20020;-61
2022/09/01 13:48:18;;;;;;;;;;;;;;;;;;4991686;28;20290;-63
2022/09/01 13:50:52;;;;;;;;;;;;;;;;;;4976165;28;19923;-62
2022/09/01 13:53:17;;;;;;;;;;;;;;;;;;4993277;28;20383;-62
2022/09/01 13:55:43;;;;;;;;;;;;;;;;;;4992845;28;20980;-62
2022/09/01 13:58:08;;;;;;;;;;;;;;;;;;4994013;28;19921;-61
2022/09/01 14:00:34;;;;;;;;;;;;;;;;;;4992980;28;19922;-60
2022/09/01 14:03:00;;;;;;;;;;;;;;;;;;4992873;28;19965;-61
2022/09/01 14:05:27;;;;;;;;;;;;;;;;;;4990551;28;19917;-61
2022/09/01 14:07:53;;;;;;;;;;;;;;;;;;4995412;28;20285;-60
2022/09/01 14:10:21;;;;;;;;;;;;;;;;;;4993513;28;20909;-60
2022/09/01 14:12:48;;;;;;;;;;;;;;;;;;4991611;28;19929;-61
2022/09/01 14:15:14;;;;;;;;;;;;;;;;;;4991772;28;20011;-60
2022/09/01 14:17:39;;;;;;;;;;;;;;;;;;4989995;28;20347;-60
2022/09/01 14:20:07;;;;;;;;;;;;;;;;;;4990372;28;19964;-61
2022/09/01 14:22:32;;;;;;;;;;;;;;;;;;4991428;28;19925;-62
2022/09/01 14:24:58;;;;;;;;;;;;;;;;;;4991358;28;19925;-61
2022/09/01 14:27:23;;;;;;;;;;;;;;;;;;4991481;28;19922;-61
2022/09/01 14:29:49;;;;;;;;;;;;;;;;;;4988909;28;20160;-61
2022/09/01 14:32:15;;;;;;;;;;;;;;;;;;4992465;28;20898;-63
2022/09/01 14:34:41;;;;;;;;;;;;;;;;;;4974322;28;20464;-61
2022/09/01 14:37:08;;;;;;;;;;;;;;;;;;4992770;28;19924;-61
2022/09/01 14:39:37;;;;;;;;;;;;;;;;;;4988066;28;20594;-59
2022/09/01 14:42:05;;;;;;;;;;;;;;;;;;4992188;28;19927;-60
2022/09/01 14:44:33;;;;;;;;;;;;;;;;;;4989337;28;19925;-59
2022/09/01 14:46:58;;;;;;;;;;;;;;;;;;4998731;28;20408;-61
2022/09/01 14:49:24;;;;;;;;;;;;;;;;;;5012220;28;20022;-59
2022/09/01 14:51:54;;;;;;;;;;;;;;;;;;4992863;28;19924;-59
2022/09/01 14:54:22;;;;;;;;;;;;;;;;;;4991689;28;19921;-60
2022/09/01 14:56:49;;;;;;;;;;;;;;;;;;5010178;28;20008;-62
2022/09/01 14:59:19;;;;;;;;;;;;;;;;;;4990416;28;19928;-61
2022/09/01 15:01:44;;;;;;;;;;;;;;;;;;5011508;28;19931;-61
2022/09/01 15:04:09;;;;;;;;;;;;;;;;;;5008981;28;19921;-61
2022/09/01 15:06:34;;;;;;;;;;;;;;;;;;5007246;28;19921;-60
2022/09/01 15:09:01;;;;;;;;;;;;;;;;;;5012873;28;19925;-60
2022/09/01 15:11:27;;;;;;;;;;;;;;;;;;4992884;28;20451;-60
2022/09/01 15:13:52;;;;;;;;;;;;;;;;;;4994490;28;20024;-60
2022/09/01 15:16:18;;;;;;;;;;;;;;;;;;4996288;28;20016;-60
2022/09/01 15:18:43;;;;;;;;;;;;;;;;;;5009015;28;19917;-59
2022/09/01 15:21:08;;;;;;;;;;;;;;;;;;4977024;28;19925;-60
2022/09/01 15:23:33;;;;;;;;;;;;;;;;;;4991655;28;19926;-61
2022/09/01 15:25:59;;;;;;;;;;;;;;;;;;4997856;28;20551;-60
2022/09/01 15:28:25;;;;;;;;;;;;;;;;;;5009857;28;19925;-59
2022/09/01 15:30:50;;;;;;;;;;;;;;;;;;5010938;28;19933;-61
2022/09/01 15:33:15;;;;;;;;;;;;;;;;;;4992480;28;21199;-59
2022/09/01 15:35:41;;;;;;;;;;;;;;;;;;4989805;28;19932;-60
2022/09/01 15:38:09;;;;;;;;;;;;;;;;;;4989443;28;19920;-60
2022/09/01 15:40:34;;;;;;;;;;;;;;;;;;5010644;28;19928;-59
2022/09/01 15:42:59;;;;;;;;;;;;;;;;;;5011160;28;19917;-60
2022/09/01 15:46:10;;;;;;;;;;;;;;;;;;4974614;28;19921;-59
2022/09/01 15:48:38;;;;;;;;;;;;;;;;;;4996684;28;19929;-61
2022/09/01 15:51:03;;;;;;;;;;;;;;;;;;5010715;28;19997;-59
2022/09/01 15:53:32;;;;;;;;;;;;;;;;;;4973637;28;19952;-61
2022/09/01 15:56:00;;;;;;;;;;;;;;;;;;5010999;28;19925;-60
2022/09/01 15:58:26;;;;;;;;;;;;;;;;;;5009550;28;19927;-61
2022/09/01 16:00:56;;;;;;;;;;;;;;;;;;5007650;28;19921;-60
2022/09/01 16:03:23;;;;;;;;;;;;;;;;;;4992863;28;19928;-62
2022/09/01 16:05:48;;;;;;;;;;;;;;;;;;5008984;28;20010;-60
2022/09/01 16:08:13;;;;;;;;;;;;;;;;;;4994994;28;20028;-60
2022/09/01 16:10:40;;;;;;;;;;;;;;;;;;5008620;28;20617;-60
2022/09/01 16:13:06;;;;;;;;;;;;;;;;;;4992201;28;19928;-61
2022/09/01 16:15:33;;;;;;;;;;;;;;;;;;5008255;28;19920;-60
2022/09/01 16:17:59;;;;;;;;;;;;;;;;;;5008876;28;21964;-60
2022/09/01 16:20:27;;;;;;;;;;;;;;;;;;5010305;28;19925;-60
2022/09/01 16:22:55;;;;;;;;;;;;;;;;;;4995102;28;19922;-60
2022/09/01 16:25:23;;;;;;;;;;;;;;;;;;4990758;28;19924;-60
2022/09/01 16:27:48;;;;;;;;;;;;;;;;;;4994082;28;19925;-62
2022/09/01 16:30:16;;;;;;;;;;;;;;;;;;5008154;28;19968;-60
2022/09/01 16:32:41;;;;;;;;;;;;;;;;;;4992742;28;19925;-60
2022/09/01 16:35:18;;;;;;;;;;;;;;;;;;5010827;28;19936;-59
2022/09/01 16:37:46;;;;;;;;;;;;;;;;;;4992086;28;20387;-61
2022/09/01 16:40:12;;;;;;;;;;;;;;;;;;4991821;28;20055;-59
2022/09/01 16:42:40;;;;;;;;;;;;;;;;;;4988667;28;20222;-59
2022/09/01 16:45:08;;;;;;;;;;;;;;;;;;4990242;28;19932;-58
2022/09/01 16:47:33;;;;;;;;;;;;;;;;;;4990705;28;19957;-59
2022/09/01 16:50:03;;;;;;;;;;;;;;;;;;4987095;28;19933;-60